createdAt,value
2022-08-01T00:01:21.545Z,55.67
2022-08-01T00:03:52.301Z,55.62
2022-08-01T00:06:22.984Z,55.50
2022-08-01T00:08:53.760Z,55.66
2022-08-01T00:11:24.430Z,55.62
2022-08-01T00:13:55.068Z,55.68
2022-08-01T00:16:25.925Z,55.64
2022-08-01T00:18:56.659Z,55.78
2022-08-01T00:21:27.440Z,55.90
2022-08-01T00:23:58.120Z,55.85
2022-08-01T00:26:28.762Z,55.69
2022-08-01T00:28:59.451Z,55.90
2022-08-01T00:31:30.077Z,56.17
2022-08-01T00:34:00.742Z,55.83
2022-08-01T00:36:31.454Z,56.18
2022-08-01T00:39:02.169Z,55.87
2022-08-01T00:41:32.879Z,55.71
2022-08-01T00:44:05.767Z,56.02
2022-08-01T00:46:36.509Z,56.14
2022-08-01T00:49:10.409Z,55.93
2022-08-01T00:51:42.075Z,55.89
2022-08-01T00:54:13.281Z,55.97
2022-08-01T00:56:47.237Z,55.82
2022-08-01T00:59:18.308Z,56.00
2022-08-01T01:01:51.348Z,55.92
2022-08-01T01:04:22.579Z,55.83
2022-08-01T01:06:56.330Z,55.71
2022-08-01T01:09:29.629Z,55.99
2022-08-01T01:12:03.026Z,56.15
2022-08-01T01:14:36.241Z,55.98
2022-08-01T01:17:07.029Z,56.00
2022-08-01T01:19:38.291Z,56.10
2022-08-01T01:22:24.431Z,55.88
2022-08-01T01:25:00.986Z,56.08
2022-08-01T01:27:45.084Z,55.97
2022-08-01T01:30:15.796Z,56.15
2022-08-01T01:32:47.418Z,56.15
2022-08-01T01:35:18.414Z,56.01
2022-08-01T01:37:49.197Z,56.29
2022-08-01T01:40:19.887Z,56.22
2022-08-01T01:42:50.490Z,56.12
2022-08-01T01:45:21.130Z,56.43
2022-08-01T01:47:51.897Z,56.32
2022-08-01T01:50:23.817Z,56.30
2022-08-01T01:52:54.587Z,56.46
2022-08-01T01:55:25.279Z,56.69
2022-08-01T01:57:55.980Z,56.68
2022-08-01T02:00:26.614Z,57.08
2022-08-01T02:02:57.657Z,56.94
2022-08-01T02:05:29.176Z,57.12
2022-08-01T02:07:59.890Z,57.18
2022-08-01T02:10:30.985Z,57.00
2022-08-01T02:13:01.953Z,57.09
2022-08-01T02:15:32.860Z,57.08
2022-08-01T02:18:03.613Z,56.92
2022-08-01T02:20:34.283Z,57.13
2022-08-01T02:23:10.017Z,57.44
2022-08-01T02:26:09.464Z,57.19
2022-08-01T02:28:33.444Z,57.16
2022-08-01T02:31:04.792Z,57.36
2022-08-01T02:33:37.445Z,57.23
2022-08-01T02:36:32.468Z,57.26
2022-08-01T02:38:59.717Z,57.30
2022-08-01T02:41:30.511Z,57.32
2022-08-01T02:44:02.318Z,57.38
2022-08-01T02:46:34.212Z,57.40
2022-08-01T02:49:05.691Z,57.41
2022-08-01T02:51:36.426Z,57.30
2022-08-01T02:54:07.801Z,57.56
2022-08-01T02:56:38.505Z,57.59
2022-08-01T02:59:10.353Z,57.61
2022-08-01T03:01:42.003Z,57.52
2022-08-01T03:04:13.131Z,57.28
2022-08-01T03:06:45.194Z,57.41
2022-08-01T03:09:16.802Z,57.28
2022-08-01T03:11:48.301Z,57.21
2022-08-01T03:14:18.928Z,57.32
2022-08-01T03:16:49.860Z,56.91
2022-08-01T03:19:20.833Z,57.05
2022-08-01T03:21:51.568Z,57.07
2022-08-01T03:24:22.261Z,57.16
2022-08-01T03:26:52.947Z,56.79
2022-08-01T03:29:24.472Z,56.90
2022-08-01T03:31:55.225Z,56.78
2022-08-01T03:34:25.947Z,56.88
2022-08-01T03:36:58.554Z,56.77
2022-08-01T03:39:30.869Z,56.79
2022-08-01T03:42:02.117Z,57.10
2022-08-01T03:44:33.180Z,56.86
2022-08-01T03:47:04.998Z,57.06
2022-08-01T03:49:37.601Z,56.68
2022-08-01T03:52:09.148Z,56.73
2022-08-01T03:54:41.187Z,56.46
2022-08-01T03:57:36.410Z,56.52
2022-08-01T04:00:02.741Z,56.14
2022-08-01T04:02:33.428Z,56.35
2022-08-01T04:05:04.244Z,55.96
2022-08-01T04:07:36.965Z,55.84
2022-08-01T04:10:08.167Z,55.85
2022-08-01T04:12:38.869Z,55.38
2022-08-01T04:15:10.359Z,55.66
2022-08-01T04:17:41.051Z,55.68
2022-08-01T04:20:13.437Z,55.58
2022-08-01T04:22:44.169Z,55.40
2022-08-01T04:25:15.682Z,55.49
2022-08-01T04:27:48.643Z,55.45
2022-08-01T04:30:24.630Z,55.20
2022-08-01T04:32:55.667Z,55.23
2022-08-01T04:36:02.104Z,55.08
2022-08-01T04:38:19.215Z,54.94
2022-08-01T04:40:49.876Z,54.87
2022-08-01T04:43:21.134Z,54.75
2022-08-01T04:45:51.823Z,54.68
2022-08-01T04:48:22.897Z,54.46
2022-08-01T04:50:53.953Z,54.52
2022-08-01T04:53:24.596Z,54.59
2022-08-01T04:55:55.290Z,54.55
2022-08-01T04:58:26.193Z,54.43
2022-08-01T05:00:56.992Z,54.30
2022-08-01T05:03:27.731Z,54.39
2022-08-01T05:05:58.356Z,54.36
2022-08-01T05:08:29.072Z,54.33
2022-08-01T05:10:59.798Z,54.45
2022-08-01T05:13:30.456Z,54.15
2022-08-01T05:16:01.257Z,54.04
2022-08-01T05:18:32.148Z,54.14
2022-08-01T05:21:03.473Z,54.25
2022-08-01T05:23:42.501Z,53.94
2022-08-01T05:26:15.125Z,54.07
2022-08-01T05:28:46.447Z,54.21
2022-08-01T05:31:17.081Z,54.18
2022-08-01T05:33:47.880Z,53.85
2022-08-01T05:36:18.598Z,53.73
2022-08-01T05:38:49.324Z,53.74
2022-08-01T05:41:20.097Z,54.01
2022-08-01T05:43:50.868Z,53.86
2022-08-01T05:46:21.557Z,53.94
2022-08-01T05:48:54.502Z,53.90
2022-08-01T05:51:25.168Z,54.03
2022-08-01T05:53:55.901Z,54.16
2022-08-01T05:56:31.901Z,53.96
2022-08-01T05:59:03.028Z,54.12
2022-08-01T06:01:33.941Z,54.05
2022-08-01T06:04:04.818Z,54.00
2022-08-01T06:06:35.356Z,54.31
2022-08-01T06:09:06.120Z,54.37
2022-08-01T06:11:37.008Z,54.15
2022-08-01T06:14:07.715Z,54.17
2022-08-01T06:16:38.445Z,54.39
2022-08-01T06:19:09.246Z,54.44
2022-08-01T06:21:39.994Z,54.37
2022-08-01T06:24:10.850Z,54.14
2022-08-01T06:26:41.615Z,54.41
2022-08-01T06:29:12.268Z,54.13
2022-08-01T06:31:43.137Z,54.37
2022-08-01T06:34:13.844Z,54.18
2022-08-01T06:36:44.551Z,54.38
2022-08-01T06:39:15.155Z,54.29
2022-08-01T06:41:47.379Z,54.54
2022-08-01T06:44:18.413Z,54.30
2022-08-01T06:46:49.313Z,54.57
2022-08-01T06:49:20.030Z,54.55
2022-08-01T06:51:50.682Z,54.51
2022-08-01T06:54:22.294Z,54.25
2022-08-01T06:56:52.974Z,54.17
2022-08-01T06:59:23.643Z,53.79
2022-08-01T07:01:54.511Z,53.71
2022-08-01T07:04:25.244Z,53.36
2022-08-01T07:06:55.875Z,53.48
2022-08-01T07:09:26.660Z,53.19
2022-08-01T07:11:57.951Z,52.82
2022-08-01T07:14:28.686Z,52.48
2022-08-01T07:16:59.486Z,52.40
2022-08-01T07:19:30.144Z,51.90
2022-08-01T07:22:00.903Z,51.96
2022-08-01T07:24:35.108Z,51.33
2022-08-01T07:27:23.144Z,50.66
2022-08-01T07:29:55.322Z,50.54
2022-08-01T07:32:26.759Z,50.25
2022-08-01T07:34:57.720Z,50.05
2022-08-01T07:37:48.086Z,49.69
2022-08-01T07:40:19.888Z,49.25
2022-08-01T07:42:50.553Z,48.88
2022-08-01T07:45:22.015Z,48.74
2022-08-01T07:47:52.679Z,49.04
2022-08-01T07:50:23.339Z,48.61
2022-08-01T07:52:54.018Z,48.35
2022-08-01T07:55:24.864Z,47.90
2022-08-01T07:57:55.538Z,47.45
2022-08-01T08:00:26.814Z,47.28
2022-08-01T08:02:59.921Z,46.70
2022-08-01T08:05:58.053Z,46.47
2022-08-01T08:08:22.423Z,46.48
2022-08-01T08:10:53.215Z,46.59
2022-08-01T08:13:23.940Z,46.41
2022-08-01T08:15:54.539Z,46.28
2022-08-01T08:18:25.266Z,46.10
2022-08-01T08:20:55.997Z,46.01
2022-08-01T08:23:44.285Z,45.44
2022-08-01T08:26:15.087Z,45.21
2022-08-01T08:28:45.855Z,45.14
2022-08-01T08:31:25.507Z,44.65
2022-08-01T08:34:07.257Z,44.80
2022-08-01T08:36:39.471Z,44.43
2022-08-01T08:39:20.020Z,44.31
2022-08-01T08:41:51.069Z,43.86
2022-08-01T08:44:22.383Z,43.70
2022-08-01T08:46:53.398Z,43.53
2022-08-01T08:49:25.313Z,43.55
2022-08-01T08:51:56.676Z,43.35
2022-08-01T08:54:29.054Z,43.06
2022-08-01T08:57:02.407Z,43.15
2022-08-01T08:59:33.008Z,42.82
2022-08-01T09:02:07.866Z,42.61
2022-08-01T09:04:40.193Z,42.76
2022-08-01T09:07:12.887Z,42.78
2022-08-01T09:09:44.018Z,42.38
2022-08-01T09:12:14.729Z,42.02
2022-08-01T09:14:48.945Z,42.12
2022-08-01T09:17:19.680Z,41.86
2022-08-01T09:19:54.676Z,41.96
2022-08-01T09:22:27.213Z,41.67
2022-08-01T09:25:01.852Z,41.55
2022-08-01T09:27:32.926Z,41.33
2022-08-01T09:30:14.229Z,41.50
2022-08-01T09:33:01.813Z,41.46
2022-08-01T09:35:43.810Z,41.17
2022-08-01T09:38:15.976Z,41.05
2022-08-01T09:40:51.211Z,40.73
2022-08-01T09:43:22.871Z,40.82
2022-08-01T09:45:53.777Z,40.97
2022-08-01T09:48:28.650Z,41.30
2022-08-01T09:51:07.270Z,40.96
2022-08-01T09:53:51.420Z,40.41
2022-08-01T09:56:23.928Z,40.61
2022-08-01T09:58:59.952Z,40.74
2022-08-01T10:01:44.557Z,40.75
2022-08-01T10:04:15.989Z,40.86
2022-08-01T10:06:50.683Z,41.10
2022-08-01T10:09:39.926Z,40.61
2022-08-01T10:12:15.849Z,40.80
2022-08-01T10:14:50.358Z,40.50
2022-08-01T10:17:22.683Z,40.28
2022-08-01T10:19:55.745Z,39.80
2022-08-01T10:22:29.404Z,39.53
2022-08-01T10:25:00.933Z,39.47
2022-08-01T10:27:38.059Z,39.51
2022-08-01T10:30:19.249Z,39.26
2022-08-01T10:32:54.852Z,38.74
2022-08-01T10:35:47.652Z,38.62
2022-08-01T10:38:16.570Z,38.68
2022-08-01T10:40:48.039Z,38.45
2022-08-01T10:43:21.721Z,38.16
2022-08-01T10:45:52.877Z,38.12
2022-08-01T10:48:25.030Z,37.96
2022-08-01T10:50:57.814Z,37.36
2022-08-01T10:53:31.442Z,37.04
2022-08-01T10:56:16.845Z,36.74
2022-08-01T10:58:48.820Z,36.63
2022-08-01T11:01:21.297Z,36.43
2022-08-01T11:04:20.944Z,36.31
2022-08-01T11:06:57.079Z,35.69
2022-08-01T11:09:37.387Z,35.30
2022-08-01T11:12:24.922Z,34.97
2022-08-01T11:15:12.948Z,35.05
2022-08-01T11:17:49.020Z,35.28
2022-08-01T11:20:20.735Z,34.86
2022-08-01T11:23:09.047Z,34.33
2022-08-01T11:26:05.813Z,34.25
2022-08-01T11:28:50.419Z,33.72
2022-08-01T11:31:37.673Z,33.13
2022-08-01T11:34:08.642Z,33.03
2022-08-01T11:39:30.159Z,32.28
2022-08-01T11:42:21.270Z,32.25
2022-08-01T11:44:52.720Z,32.30
2022-08-01T11:47:36.956Z,32.24
2022-08-01T11:50:08.365Z,31.83
2022-08-01T11:52:42.063Z,31.44
2022-08-01T11:55:13.182Z,31.21
2022-08-01T11:57:48.606Z,31.15
2022-08-01T12:00:20.022Z,31.26
2022-08-01T12:02:59.020Z,30.79
2022-08-01T12:05:31.490Z,30.36
2022-08-01T12:08:02.790Z,30.26
2022-08-01T12:10:47.076Z,30.15
2022-08-01T12:13:21.156Z,30.13
2022-08-01T12:15:56.476Z,30.12
2022-08-01T12:18:27.488Z,29.87
2022-08-01T12:21:02.151Z,29.77
2022-08-01T12:23:32.766Z,29.79
2022-08-01T12:26:05.204Z,29.93
2022-08-01T12:28:42.680Z,29.52
2022-08-01T12:31:13.492Z,29.58
2022-08-01T12:33:44.129Z,29.75
2022-08-01T12:36:16.958Z,29.56
2022-08-01T12:38:47.749Z,29.45
2022-08-01T12:41:18.526Z,29.45
2022-08-01T12:43:49.595Z,29.33
2022-08-01T12:46:20.354Z,29.23
2022-08-01T12:48:51.102Z,29.04
2022-08-01T12:51:21.945Z,29.10
2022-08-01T12:53:52.525Z,29.00
2022-08-01T12:56:31.204Z,29.18
2022-08-01T12:59:01.964Z,28.74
2022-08-01T13:01:32.692Z,28.68
2022-08-01T13:04:05.264Z,28.81
2022-08-01T13:06:36.532Z,28.66
2022-08-01T13:09:10.176Z,28.60
2022-08-01T13:11:51.865Z,28.62
2022-08-01T13:14:31.976Z,28.55
2022-08-01T13:17:02.625Z,28.30
2022-08-01T13:19:45.747Z,28.21
2022-08-01T13:22:16.465Z,27.99
2022-08-01T13:24:47.157Z,27.84
2022-08-01T13:27:25.051Z,27.69
2022-08-01T13:29:55.744Z,27.51
2022-08-01T13:32:29.035Z,27.48
2022-08-01T13:35:05.164Z,27.27
2022-08-01T13:37:37.156Z,27.08
2022-08-01T13:40:11.172Z,26.89
2022-08-01T13:42:42.038Z,26.93
2022-08-01T13:45:14.457Z,26.82
2022-08-01T13:48:03.752Z,26.83
2022-08-01T13:50:36.971Z,26.86
2022-08-01T13:53:07.608Z,26.65
2022-08-01T13:55:38.269Z,26.54
2022-08-01T13:58:09.112Z,26.28
2022-08-01T14:00:39.874Z,26.20
2022-08-01T14:03:11.786Z,26.14
2022-08-01T14:05:42.409Z,25.87
2022-08-01T14:08:13.086Z,26.13
2022-08-01T14:10:45.248Z,26.16
2022-08-01T14:13:16.621Z,25.98
2022-08-01T14:15:47.499Z,25.98
2022-08-01T14:18:18.674Z,25.96
2022-08-01T14:20:49.751Z,25.80
2022-08-01T14:23:24.411Z,25.91
2022-08-01T14:26:03.347Z,26.09
2022-08-01T14:28:37.743Z,26.27
2022-08-01T14:31:08.853Z,26.12
2022-08-01T14:33:39.567Z,25.93
2022-08-01T14:36:29.401Z,26.28
2022-08-01T14:39:01.171Z,26.12
2022-08-01T14:41:31.924Z,26.21
2022-08-01T14:44:02.575Z,26.22
2022-08-01T14:46:34.085Z,26.08
2022-08-01T14:49:04.955Z,26.33
2022-08-01T14:51:36.022Z,26.40
2022-08-01T14:54:07.063Z,26.83
2022-08-01T14:56:40.116Z,26.92
2022-08-01T14:59:10.887Z,27.11
2022-08-01T15:01:52.121Z,27.18
2022-08-01T15:04:22.818Z,27.10
2022-08-01T15:06:53.491Z,27.20
2022-08-01T15:09:24.904Z,27.50
2022-08-01T15:11:55.604Z,27.57
2022-08-01T15:14:58.110Z,27.44
2022-08-01T15:17:30.268Z,27.86
2022-08-01T15:20:01.689Z,27.98
2022-08-01T15:22:32.532Z,27.72
2022-08-01T15:25:03.628Z,27.89
2022-08-01T15:27:34.258Z,27.99
2022-08-01T15:30:05.795Z,28.06
2022-08-01T15:32:36.692Z,28.02
2022-08-01T15:35:08.385Z,27.99
2022-08-01T15:37:42.870Z,27.83
2022-08-01T15:40:14.101Z,27.82
2022-08-01T15:42:44.781Z,27.87
2022-08-01T15:45:45.449Z,28.04
2022-08-01T15:48:09.849Z,27.96
2022-08-01T15:50:40.660Z,27.67
2022-08-01T15:53:11.403Z,27.85
2022-08-01T15:55:42.114Z,28.21
2022-08-01T15:58:23.503Z,28.10
2022-08-01T16:00:54.165Z,28.09
2022-08-01T16:03:24.898Z,28.10
2022-08-01T16:05:55.772Z,28.03
2022-08-01T16:08:26.452Z,28.26
2022-08-01T16:10:57.126Z,28.25
2022-08-01T16:13:27.807Z,28.37
2022-08-01T16:15:59.697Z,28.35
2022-08-01T16:18:30.374Z,28.20
2022-08-01T16:21:01.078Z,28.36
2022-08-01T16:23:31.902Z,28.44
2022-08-01T16:26:02.772Z,28.41
2022-08-01T16:28:33.521Z,28.56
2022-08-01T16:31:11.247Z,28.71
2022-08-01T16:33:58.189Z,28.72
2022-08-01T16:36:32.811Z,28.83
2022-08-01T16:39:07.639Z,28.96
2022-08-01T16:41:38.269Z,29.04
2022-08-01T16:44:08.975Z,29.16
2022-08-01T16:46:39.637Z,29.16
2022-08-01T16:49:11.061Z,29.15
2022-08-01T16:51:48.116Z,29.25
2022-08-01T16:54:25.195Z,29.36
2022-08-01T16:56:58.082Z,29.35
2022-08-01T16:59:41.494Z,29.45
2022-08-01T17:02:12.882Z,29.54
2022-08-01T17:04:43.601Z,29.35
2022-08-01T17:07:14.214Z,29.36
2022-08-01T17:09:44.913Z,29.42
2022-08-01T17:12:22.552Z,29.41
2022-08-01T17:14:53.480Z,29.62
2022-08-01T17:17:24.296Z,29.65
2022-08-01T17:19:54.951Z,29.76
2022-08-01T17:22:25.607Z,29.94
2022-08-01T17:24:56.250Z,29.69
2022-08-01T17:27:26.994Z,29.82
2022-08-01T17:29:57.628Z,29.97
2022-08-01T17:32:28.384Z,29.95
2022-08-01T17:34:59.030Z,30.00
2022-08-01T17:37:29.750Z,30.17
2022-08-01T17:40:03.490Z,30.16
2022-08-01T17:42:36.993Z,30.32
2022-08-01T17:45:27.469Z,30.38
2022-08-01T17:47:59.059Z,30.53
2022-08-01T17:50:29.739Z,30.40
2022-08-01T17:53:00.453Z,30.47
2022-08-01T17:55:55.551Z,30.51
2022-08-01T17:58:45.976Z,30.50
2022-08-01T18:01:12.533Z,30.46
2022-08-01T18:03:43.731Z,30.51
2022-08-01T18:06:17.490Z,30.66
2022-08-01T18:08:48.794Z,30.73
2022-08-01T18:11:19.478Z,30.65
2022-08-01T18:13:51.964Z,30.65
2022-08-01T18:16:22.761Z,30.69
2022-08-01T18:18:57.797Z,30.83
2022-08-01T18:21:28.819Z,30.91
2022-08-01T18:24:00.710Z,30.97
2022-08-01T18:26:31.383Z,30.95
2022-08-01T18:29:02.148Z,31.21
2022-08-01T18:31:32.812Z,31.33
2022-08-01T18:34:03.492Z,31.39
2022-08-01T18:36:34.419Z,31.51
2022-08-01T18:39:06.339Z,31.72
2022-08-01T18:41:40.901Z,31.71
2022-08-01T18:44:12.636Z,31.41
2022-08-01T18:46:43.289Z,31.42
2022-08-01T18:49:14.166Z,31.80
2022-08-01T18:51:47.097Z,32.26
2022-08-01T18:54:17.949Z,32.37
2022-08-01T18:56:48.650Z,32.74
2022-08-01T18:59:19.460Z,32.85
2022-08-01T19:01:50.230Z,33.20
2022-08-01T19:04:21.045Z,33.55
2022-08-01T19:06:51.677Z,33.75
2022-08-01T19:09:23.263Z,34.01
2022-08-01T19:11:54.166Z,34.16
2022-08-01T19:14:24.881Z,34.33
2022-08-01T19:16:56.575Z,34.76
2022-08-01T19:19:27.931Z,34.86
2022-08-01T19:21:59.021Z,35.04
2022-08-01T19:24:29.722Z,35.19
2022-08-01T19:27:08.404Z,35.34
2022-08-01T19:29:40.247Z,35.63
2022-08-01T19:32:11.559Z,35.85
2022-08-01T19:34:45.436Z,36.10
2022-08-01T19:37:16.033Z,36.29
2022-08-01T19:39:46.803Z,36.49
2022-08-01T19:42:17.499Z,36.69
2022-08-01T19:44:48.186Z,36.73
2022-08-01T19:47:18.988Z,37.03
2022-08-01T19:49:49.680Z,37.06
2022-08-01T19:52:20.864Z,37.25
2022-08-01T19:54:51.556Z,37.36
2022-08-01T19:57:22.254Z,37.48
2022-08-01T19:59:55.012Z,37.54
2022-08-01T20:02:25.893Z,37.74
2022-08-01T20:04:56.733Z,38.04
2022-08-01T20:07:27.365Z,37.88
2022-08-01T20:09:58.015Z,38.05
2022-08-01T20:12:28.743Z,38.21
2022-08-01T20:14:59.426Z,38.37
2022-08-01T20:17:30.099Z,38.43
2022-08-01T20:20:00.765Z,38.50
2022-08-01T20:22:31.374Z,38.65
2022-08-01T20:25:02.641Z,38.73
2022-08-01T20:27:33.345Z,38.78
2022-08-01T20:30:04.146Z,38.83
2022-08-01T20:32:35.794Z,39.05
2022-08-01T20:35:07.766Z,38.99
2022-08-01T20:38:06.314Z,39.33
2022-08-01T20:40:30.899Z,39.29
2022-08-01T20:43:01.520Z,39.44
2022-08-01T20:45:33.108Z,39.54
2022-08-01T20:48:03.932Z,39.75
2022-08-01T20:50:54.252Z,39.67
2022-08-01T20:53:26.297Z,39.84
2022-08-01T20:56:01.529Z,40.01
2022-08-01T20:58:34.289Z,40.33
2022-08-01T21:01:09.435Z,40.44
2022-08-01T21:03:44.322Z,40.46
2022-08-01T21:06:15.229Z,40.64
2022-08-01T21:08:47.520Z,40.89
2022-08-01T21:11:21.294Z,40.95
2022-08-01T21:13:51.971Z,41.02
2022-08-01T21:16:25.467Z,41.05
2022-08-01T21:19:18.712Z,40.99
2022-08-01T21:21:50.722Z,41.20
2022-08-01T21:24:21.428Z,41.04
2022-08-01T21:26:52.115Z,41.33
2022-08-01T21:29:30.761Z,41.52
2022-08-01T21:32:15.573Z,41.39
2022-08-01T21:34:47.860Z,41.39
2022-08-01T21:37:18.588Z,41.42
2022-08-01T21:39:49.296Z,41.39
2022-08-01T21:42:20.347Z,41.55
2022-08-01T21:44:51.420Z,41.58
2022-08-01T21:47:22.124Z,41.78
2022-08-01T21:49:52.867Z,41.72
2022-08-01T21:52:23.574Z,41.71
2022-08-01T21:55:01.188Z,42.01
2022-08-01T21:57:45.951Z,42.11
2022-08-01T22:00:25.875Z,42.21
2022-08-01T22:03:00.051Z,42.35
2022-08-01T22:05:42.580Z,42.56
2022-08-01T22:08:25.556Z,42.42
2022-08-01T22:10:58.635Z,42.68
2022-08-01T22:13:29.733Z,42.74
2022-08-01T22:16:00.473Z,42.68
2022-08-01T22:18:31.167Z,42.73
2022-08-01T22:21:01.807Z,42.79
2022-08-01T22:23:32.476Z,42.91
2022-08-01T22:26:03.103Z,42.93
2022-08-01T22:28:33.791Z,42.89
2022-08-01T22:31:06.758Z,43.00
2022-08-01T22:33:37.801Z,43.13
2022-08-01T22:36:08.605Z,43.30
2022-08-01T22:38:39.295Z,43.10
2022-08-01T22:41:11.552Z,43.28
2022-08-01T22:43:44.389Z,43.56
2022-08-01T22:46:18.861Z,43.25
2022-08-01T22:48:51.529Z,43.15
2022-08-01T22:51:32.454Z,43.41
2022-08-01T22:54:05.952Z,43.16
2022-08-01T22:56:39.536Z,43.35
2022-08-01T22:59:13.666Z,43.65
2022-08-01T23:01:47.591Z,43.37
2022-08-01T23:04:33.073Z,43.41
2022-08-01T23:07:06.890Z,43.48
2022-08-01T23:09:52.916Z,43.53
2022-08-01T23:12:28.524Z,43.51
2022-08-01T23:14:59.619Z,43.44
2022-08-01T23:17:31.295Z,43.47
2022-08-01T23:20:02.569Z,43.46
2022-08-01T23:22:33.740Z,43.30
2022-08-01T23:25:06.461Z,43.68
2022-08-01T23:27:57.857Z,43.47
2022-08-01T23:30:29.450Z,43.38
2022-08-01T23:33:00.232Z,43.48
2022-08-01T23:35:30.913Z,43.78
2022-08-01T23:38:03.058Z,43.56
2022-08-01T23:40:34.353Z,43.65
2022-08-01T23:43:16.950Z,43.72
2022-08-01T23:46:04.022Z,43.96
2022-08-01T23:48:36.390Z,43.94
2022-08-01T23:51:07.657Z,43.98
2022-08-01T23:53:39.882Z,44.06
2022-08-01T23:56:10.524Z,44.13
2022-08-01T23:58:43.810Z,44.10
